Terminal Aerodrome Forecast
Issued by NWS Wakefield, VA

Home | Current Version | Previous Version | Text Only | Print | Product List | Glossary On
Versions: 1 2 3 4 5 6 7 8 9 10 11 12 13 14 15
952
FTUS41 KAKQ 240539
TAFORF
TAF
KORF 240539Z 2406/2506 17006KT P6SM BKN035 OVC120
     FM240700 18015G23KT 4SM SHRA OVC050
     FM241200 19012G20KT 6SM -SHRA OVC020
     FM241400 19014G21KT P6SM VCSH OVC035
     FM241800 20014G21KT P6SM BKN050
     FM250300 22005KT P6SM SKC=

USA.gov is the U.S. government's official web portal to all federal, state and local government web resources and services.